sensor_id;sensor_type;location;lat;lon;timestamp;P1;durP1;ratioP1;P2;durP2;ratioP2
71087;SDS011;58747;50.674;4.616;2022-12-15T00:02:22;34.75;;;17.35;;
71087;SDS011;58747;50.674;4.616;2022-12-15T00:05:06;33.40;;;16.90;;
71087;SDS011;58747;50.674;4.616;2022-12-15T00:07:50;31.75;;;16.95;;
71087;SDS011;58747;50.674;4.616;2022-12-15T00:10:34;40.43;;;19.77;;
71087;SDS011;58747;50.674;4.616;2022-12-15T00:13:18;44.08;;;20.77;;
71087;SDS011;58747;50.674;4.616;2022-12-15T00:16:02;41.88;;;20.35;;
71087;SDS011;58747;50.674;4.616;2022-12-15T00:18:46;41.67;;;18.67;;
71087;SDS011;58747;50.674;4.616;2022-12-15T00:21:30;37.08;;;18.35;;
71087;SDS011;58747;50.674;4.616;2022-12-15T00:24:14;40.00;;;19.37;;
71087;SDS011;58747;50.674;4.616;2022-12-15T00:26:58;36.85;;;17.77;;
71087;SDS011;58747;50.674;4.616;2022-12-15T00:29:42;38.58;;;17.70;;
71087;SDS011;58747;50.674;4.616;2022-12-15T00:32:26;39.47;;;18.20;;
71087;SDS011;58747;50.674;4.616;2022-12-15T00:35:10;37.70;;;19.15;;
71087;SDS011;58747;50.674;4.616;2022-12-15T00:37:54;34.73;;;17.83;;
71087;SDS011;58747;50.674;4.616;2022-12-15T00:40:38;37.30;;;18.52;;
71087;SDS011;58747;50.674;4.616;2022-12-15T00:43:03;39.43;;;18.07;;
71087;SDS011;58747;50.674;4.616;2022-12-15T00:45:29;42.15;;;20.38;;
71087;SDS011;58747;50.674;4.616;2022-12-15T00:48:13;39.38;;;20.27;;
71087;SDS011;58747;50.674;4.616;2022-12-15T00:50:39;35.17;;;19.07;;
71087;SDS011;58747;50.674;4.616;2022-12-15T00:53:21;34.85;;;18.10;;
71087;SDS011;58747;50.674;4.616;2022-12-15T00:56:07;32.72;;;17.70;;
71087;SDS011;58747;50.674;4.616;2022-12-15T00:58:51;43.40;;;19.17;;
71087;SDS011;58747;50.674;4.616;2022-12-15T01:01:36;35.67;;;18.67;;
71087;SDS011;58747;50.674;4.616;2022-12-15T01:04:21;37.45;;;17.65;;
71087;SDS011;58747;50.674;4.616;2022-12-15T01:07:05;39.78;;;19.52;;
71087;SDS011;58747;50.674;4.616;2022-12-15T01:09:49;38.58;;;19.10;;
71087;SDS011;58747;50.674;4.616;2022-12-15T01:12:33;41.33;;;18.50;;
71087;SDS011;58747;50.674;4.616;2022-12-15T01:15:17;39.70;;;17.83;;
71087;SDS011;58747;50.674;4.616;2022-12-15T01:18:00;36.50;;;16.85;;
71087;SDS011;58747;50.674;4.616;2022-12-15T01:20:44;38.58;;;17.70;;
71087;SDS011;58747;50.674;4.616;2022-12-15T01:23:29;37.35;;;18.45;;
71087;SDS011;58747;50.674;4.616;2022-12-15T01:25:55;37.00;;;17.73;;
71087;SDS011;58747;50.674;4.616;2022-12-15T01:28:21;38.42;;;18.75;;
71087;SDS011;58747;50.674;4.616;2022-12-15T01:30:47;42.88;;;19.42;;
71087;SDS011;58747;50.674;4.616;2022-12-15T01:33:13;43.17;;;19.70;;
71087;SDS011;58747;50.674;4.616;2022-12-15T01:35:39;33.13;;;17.92;;
71087;SDS011;58747;50.674;4.616;2022-12-15T01:38:05;37.60;;;18.65;;
71087;SDS011;58747;50.674;4.616;2022-12-15T01:40:31;40.40;;;19.20;;
71087;SDS011;58747;50.674;4.616;2022-12-15T01:43:18;35.72;;;17.40;;
71087;SDS011;58747;50.674;4.616;2022-12-15T01:45:51;36.20;;;18.88;;
71087;SDS011;58747;50.674;4.616;2022-12-15T01:53:52;39.97;;;18.70;;
71087;SDS011;58747;50.674;4.616;2022-12-15T01:56:18;43.08;;;19.50;;
71087;SDS011;58747;50.674;4.616;2022-12-15T01:58:46;45.63;;;19.65;;
71087;SDS011;58747;50.674;4.616;2022-12-15T02:01:13;40.90;;;18.63;;
71087;SDS011;58747;50.674;4.616;2022-12-15T02:03:39;38.67;;;18.85;;
71087;SDS011;58747;50.674;4.616;2022-12-15T02:06:06;40.03;;;20.07;;
71087;SDS011;58747;50.674;4.616;2022-12-15T02:08:33;37.22;;;18.67;;
71087;SDS011;58747;50.674;4.616;2022-12-15T02:27:32;38.53;;;18.40;;
71087;SDS011;58747;50.674;4.616;2022-12-15T02:33:27;41.67;;;18.97;;
71087;SDS011;58747;50.674;4.616;2022-12-15T02:38:29;37.15;;;19.15;;
71087;SDS011;58747;50.674;4.616;2022-12-15T02:40:58;38.22;;;18.38;;
71087;SDS011;58747;50.674;4.616;2022-12-15T02:43:28;36.03;;;17.77;;
71087;SDS011;58747;50.674;4.616;2022-12-15T02:51:51;37.33;;;18.13;;
71087;SDS011;58747;50.674;4.616;2022-12-15T02:54:56;41.80;;;19.75;;
71087;SDS011;58747;50.674;4.616;2022-12-15T03:00:16;43.83;;;20.20;;
71087;SDS011;58747;50.674;4.616;2022-12-15T03:02:43;39.88;;;19.20;;
71087;SDS011;58747;50.674;4.616;2022-12-15T03:05:12;40.35;;;19.73;;
71087;SDS011;58747;50.674;4.616;2022-12-15T03:07:38;35.00;;;19.08;;
71087;SDS011;58747;50.674;4.616;2022-12-15T03:10:05;37.23;;;18.17;;
71087;SDS011;58747;50.674;4.616;2022-12-15T03:12:31;40.08;;;19.17;;
71087;SDS011;58747;50.674;4.616;2022-12-15T03:14:56;42.33;;;19.03;;
71087;SDS011;58747;50.674;4.616;2022-12-15T03:17:22;42.00;;;17.83;;
71087;SDS011;58747;50.674;4.616;2022-12-15T03:19:47;37.90;;;18.23;;
71087;SDS011;58747;50.674;4.616;2022-12-15T03:22:13;39.43;;;17.90;;
71087;SDS011;58747;50.674;4.616;2022-12-15T03:24:38;40.63;;;18.97;;
71087;SDS011;58747;50.674;4.616;2022-12-15T03:27:03;39.23;;;18.10;;
71087;SDS011;58747;50.674;4.616;2022-12-15T03:29:29;36.57;;;18.03;;
71087;SDS011;58747;50.674;4.616;2022-12-15T03:31:54;34.20;;;17.33;;
71087;SDS011;58747;50.674;4.616;2022-12-15T03:34:19;33.10;;;16.77;;
71087;SDS011;58747;50.674;4.616;2022-12-15T03:36:45;36.40;;;16.80;;
71087;SDS011;58747;50.674;4.616;2022-12-15T03:39:10;38.13;;;17.73;;
71087;SDS011;58747;50.674;4.616;2022-12-15T03:41:36;33.30;;;16.70;;
71087;SDS011;58747;50.674;4.616;2022-12-15T03:44:01;37.17;;;17.58;;
71087;SDS011;58747;50.674;4.616;2022-12-15T03:46:27;35.63;;;18.20;;
71087;SDS011;58747;50.674;4.616;2022-12-15T03:48:52;41.43;;;18.00;;
71087;SDS011;58747;50.674;4.616;2022-12-15T03:51:18;36.50;;;17.37;;
71087;SDS011;58747;50.674;4.616;2022-12-15T03:53:44;33.47;;;18.48;;
71087;SDS011;58747;50.674;4.616;2022-12-15T03:56:13;37.20;;;18.23;;
71087;SDS011;58747;50.674;4.616;2022-12-15T03:58:39;35.25;;;16.75;;
71087;SDS011;58747;50.674;4.616;2022-12-15T04:03:45;35.67;;;16.92;;
71087;SDS011;58747;50.674;4.616;2022-12-15T04:06:10;42.47;;;18.17;;
71087;SDS011;58747;50.674;4.616;2022-12-15T04:08:35;38.40;;;17.10;;
71087;SDS011;58747;50.674;4.616;2022-12-15T04:11:01;39.27;;;17.33;;
71087;SDS011;58747;50.674;4.616;2022-12-15T04:13:26;31.93;;;16.40;;
71087;SDS011;58747;50.674;4.616;2022-12-15T04:15:51;41.60;;;18.33;;
71087;SDS011;58747;50.674;4.616;2022-12-15T04:18:17;36.53;;;17.27;;
71087;SDS011;58747;50.674;4.616;2022-12-15T04:20:42;33.93;;;16.93;;
71087;SDS011;58747;50.674;4.616;2022-12-15T04:23:07;36.37;;;17.77;;
71087;SDS011;58747;50.674;4.616;2022-12-15T04:25:33;37.53;;;18.30;;
71087;SDS011;58747;50.674;4.616;2022-12-15T04:28:18;34.55;;;16.85;;
71087;SDS011;58747;50.674;4.616;2022-12-15T04:31:06;37.15;;;17.00;;
71087;SDS011;58747;50.674;4.616;2022-12-15T04:33:56;39.17;;;17.93;;
71087;SDS011;58747;50.674;4.616;2022-12-15T04:36:46;35.63;;;17.05;;
71087;SDS011;58747;50.674;4.616;2022-12-15T04:39:33;31.80;;;16.98;;
71087;SDS011;58747;50.674;4.616;2022-12-15T04:42:19;35.08;;;17.85;;
71087;SDS011;58747;50.674;4.616;2022-12-15T04:45:03;42.00;;;18.48;;
71087;SDS011;58747;50.674;4.616;2022-12-15T04:47:48;32.77;;;16.07;;
71087;SDS011;58747;50.674;4.616;2022-12-15T04:50:32;39.45;;;17.92;;
71087;SDS011;58747;50.674;4.616;2022-12-15T04:53:17;38.03;;;17.30;;
71087;SDS011;58747;50.674;4.616;2022-12-15T04:56:01;36.42;;;18.52;;
71087;SDS011;58747;50.674;4.616;2022-12-15T04:58:46;34.83;;;18.30;;
71087;SDS011;58747;50.674;4.616;2022-12-15T05:01:31;34.13;;;16.87;;
71087;SDS011;58747;50.674;4.616;2022-12-15T05:04:15;44.25;;;17.52;;
71087;SDS011;58747;50.674;4.616;2022-12-15T05:06:59;42.33;;;18.95;;
71087;SDS011;58747;50.674;4.616;2022-12-15T05:09:43;41.20;;;18.40;;
71087;SDS011;58747;50.674;4.616;2022-12-15T05:12:27;38.03;;;17.67;;
71087;SDS011;58747;50.674;4.616;2022-12-15T05:15:11;38.03;;;15.73;;
71087;SDS011;58747;50.674;4.616;2022-12-15T05:17:55;37.72;;;17.63;;
71087;SDS011;58747;50.674;4.616;2022-12-15T05:20:39;32.40;;;17.50;;
71087;SDS011;58747;50.674;4.616;2022-12-15T05:23:23;33.75;;;17.08;;
71087;SDS011;58747;50.674;4.616;2022-12-15T05:26:07;36.55;;;17.42;;
71087;SDS011;58747;50.674;4.616;2022-12-15T05:28:51;34.83;;;16.33;;
71087;SDS011;58747;50.674;4.616;2022-12-15T05:31:35;35.17;;;17.67;;
71087;SDS011;58747;50.674;4.616;2022-12-15T05:34:23;36.30;;;17.42;;
71087;SDS011;58747;50.674;4.616;2022-12-15T05:36:50;37.25;;;18.73;;
71087;SDS011;58747;50.674;4.616;2022-12-15T05:39:16;38.00;;;18.02;;
71087;SDS011;58747;50.674;4.616;2022-12-15T05:41:42;38.87;;;16.90;;
71087;SDS011;58747;50.674;4.616;2022-12-15T05:44:07;38.50;;;17.57;;
71087;SDS011;58747;50.674;4.616;2022-12-15T05:46:33;40.67;;;18.58;;
71087;SDS011;58747;50.674;4.616;2022-12-15T05:49:01;35.97;;;17.83;;
71087;SDS011;58747;50.674;4.616;2022-12-15T05:51:28;38.47;;;17.20;;
71087;SDS011;58747;50.674;4.616;2022-12-15T05:53:53;34.65;;;17.77;;
71087;SDS011;58747;50.674;4.616;2022-12-15T05:56:18;35.30;;;16.57;;
71087;SDS011;58747;50.674;4.616;2022-12-15T05:58:44;40.00;;;19.07;;
71087;SDS011;58747;50.674;4.616;2022-12-15T06:01:13;37.30;;;17.23;;
71087;SDS011;58747;50.674;4.616;2022-12-15T06:03:40;42.28;;;18.10;;
71087;SDS011;58747;50.674;4.616;2022-12-15T06:06:08;41.27;;;20.20;;
71087;SDS011;58747;50.674;4.616;2022-12-15T06:08:35;40.50;;;19.67;;
71087;SDS011;58747;50.674;4.616;2022-12-15T06:11:02;43.30;;;19.23;;
71087;SDS011;58747;50.674;4.616;2022-12-15T06:13:29;40.22;;;19.30;;
71087;SDS011;58747;50.674;4.616;2022-12-15T06:18:32;45.63;;;18.52;;
71087;SDS011;58747;50.674;4.616;2022-12-15T06:21:01;37.42;;;19.23;;
71087;SDS011;58747;50.674;4.616;2022-12-15T06:23:28;40.53;;;19.48;;
71087;SDS011;58747;50.674;4.616;2022-12-15T06:25:55;38.80;;;18.73;;
71087;SDS011;58747;50.674;4.616;2022-12-15T06:28:21;38.47;;;18.70;;
71087;SDS011;58747;50.674;4.616;2022-12-15T06:30:52;38.97;;;19.05;;
71087;SDS011;58747;50.674;4.616;2022-12-15T06:33:20;40.85;;;19.23;;
71087;SDS011;58747;50.674;4.616;2022-12-15T06:35:46;34.63;;;17.90;;
71087;SDS011;58747;50.674;4.616;2022-12-15T06:38:13;41.47;;;18.98;;
71087;SDS011;58747;50.674;4.616;2022-12-15T06:40:39;42.90;;;18.50;;
71087;SDS011;58747;50.674;4.616;2022-12-15T06:43:05;44.80;;;19.20;;
71087;SDS011;58747;50.674;4.616;2022-12-15T06:45:32;35.93;;;18.33;;
71087;SDS011;58747;50.674;4.616;2022-12-15T06:47:57;44.00;;;18.90;;
71087;SDS011;58747;50.674;4.616;2022-12-15T06:50:22;43.57;;;18.20;;
71087;SDS011;58747;50.674;4.616;2022-12-15T06:52:48;46.57;;;19.70;;
71087;SDS011;58747;50.674;4.616;2022-12-15T06:55:13;39.70;;;19.83;;
71087;SDS011;58747;50.674;4.616;2022-12-15T06:57:39;39.67;;;18.30;;
71087;SDS011;58747;50.674;4.616;2022-12-15T07:00:04;37.20;;;17.70;;
71087;SDS011;58747;50.674;4.616;2022-12-15T07:02:30;42.75;;;20.02;;
71087;SDS011;58747;50.674;4.616;2022-12-15T07:04:56;45.33;;;20.75;;
71087;SDS011;58747;50.674;4.616;2022-12-15T07:07:22;45.63;;;18.93;;
71087;SDS011;58747;50.674;4.616;2022-12-15T07:09:47;37.00;;;18.40;;
71087;SDS011;58747;50.674;4.616;2022-12-15T07:12:13;36.13;;;18.38;;
71087;SDS011;58747;50.674;4.616;2022-12-15T07:14:38;38.37;;;19.30;;
71087;SDS011;58747;50.674;4.616;2022-12-15T07:17:03;38.13;;;18.83;;
71087;SDS011;58747;50.674;4.616;2022-12-15T07:19:29;36.83;;;18.77;;
71087;SDS011;58747;50.674;4.616;2022-12-15T07:21:54;37.47;;;18.17;;
71087;SDS011;58747;50.674;4.616;2022-12-15T07:24:21;37.97;;;17.90;;
71087;SDS011;58747;50.674;4.616;2022-12-15T07:26:47;37.10;;;19.37;;
71087;SDS011;58747;50.674;4.616;2022-12-15T07:29:12;40.90;;;20.13;;
71087;SDS011;58747;50.674;4.616;2022-12-15T07:31:38;39.13;;;19.08;;
71087;SDS011;58747;50.674;4.616;2022-12-15T07:34:03;45.37;;;20.03;;
71087;SDS011;58747;50.674;4.616;2022-12-15T07:36:29;44.33;;;19.97;;
71087;SDS011;58747;50.674;4.616;2022-12-15T07:38:58;45.03;;;20.65;;
71087;SDS011;58747;50.674;4.616;2022-12-15T07:41:28;41.92;;;20.23;;
71087;SDS011;58747;50.674;4.616;2022-12-15T07:43:54;43.13;;;20.30;;
71087;SDS011;58747;50.674;4.616;2022-12-15T07:46:19;39.07;;;19.67;;
71087;SDS011;58747;50.674;4.616;2022-12-15T07:48:44;44.80;;;21.80;;
71087;SDS011;58747;50.674;4.616;2022-12-15T07:51:10;46.47;;;20.58;;
71087;SDS011;58747;50.674;4.616;2022-12-15T07:53:35;41.90;;;20.75;;
71087;SDS011;58747;50.674;4.616;2022-12-15T07:56:02;42.77;;;20.23;;
71087;SDS011;58747;50.674;4.616;2022-12-15T07:58:28;38.35;;;19.33;;
71087;SDS011;58747;50.674;4.616;2022-12-15T08:01:00;35.87;;;18.57;;
71087;SDS011;58747;50.674;4.616;2022-12-15T08:03:28;36.75;;;18.92;;
71087;SDS011;58747;50.674;4.616;2022-12-15T08:05:53;41.85;;;20.63;;
71087;SDS011;58747;50.674;4.616;2022-12-15T08:08:20;39.97;;;18.50;;
71087;SDS011;58747;50.674;4.616;2022-12-15T08:10:46;37.03;;;19.98;;
71087;SDS011;58747;50.674;4.616;2022-12-15T08:13:12;37.17;;;18.67;;
71087;SDS011;58747;50.674;4.616;2022-12-15T08:15:38;39.63;;;19.98;;
71087;SDS011;58747;50.674;4.616;2022-12-15T08:18:03;42.25;;;17.75;;
71087;SDS011;58747;50.674;4.616;2022-12-15T08:20:30;40.27;;;19.67;;
71087;SDS011;58747;50.674;4.616;2022-12-15T08:22:56;38.63;;;18.35;;
71087;SDS011;58747;50.674;4.616;2022-12-15T08:25:22;38.90;;;19.05;;
71087;SDS011;58747;50.674;4.616;2022-12-15T08:27:50;39.77;;;18.33;;
71087;SDS011;58747;50.674;4.616;2022-12-15T08:30:16;38.58;;;18.77;;
71087;SDS011;58747;50.674;4.616;2022-12-15T08:32:42;37.72;;;17.30;;
71087;SDS011;58747;50.674;4.616;2022-12-15T08:35:08;40.70;;;18.07;;
71087;SDS011;58747;50.674;4.616;2022-12-15T08:37:34;42.45;;;21.10;;
71087;SDS011;58747;50.674;4.616;2022-12-15T08:39:59;41.37;;;19.50;;
71087;SDS011;58747;50.674;4.616;2022-12-15T08:42:25;39.10;;;19.80;;
71087;SDS011;58747;50.674;4.616;2022-12-15T08:44:50;36.73;;;19.93;;
71087;SDS011;58747;50.674;4.616;2022-12-15T08:47:15;41.13;;;20.53;;
71087;SDS011;58747;50.674;4.616;2022-12-15T08:49:41;40.13;;;19.38;;
71087;SDS011;58747;50.674;4.616;2022-12-15T08:52:06;36.43;;;18.60;;
71087;SDS011;58747;50.674;4.616;2022-12-15T08:54:32;38.63;;;20.23;;
71087;SDS011;58747;50.674;4.616;2022-12-15T08:56:58;39.65;;;19.33;;
71087;SDS011;58747;50.674;4.616;2022-12-15T08:59:23;39.63;;;21.50;;
71087;SDS011;58747;50.674;4.616;2022-12-15T09:01:49;43.43;;;22.27;;
71087;SDS011;58747;50.674;4.616;2022-12-15T09:04:14;46.88;;;22.02;;
71087;SDS011;58747;50.674;4.616;2022-12-15T09:06:39;48.20;;;22.73;;
71087;SDS011;58747;50.674;4.616;2022-12-15T09:09:06;45.60;;;21.07;;
71087;SDS011;58747;50.674;4.616;2022-12-15T09:11:32;43.70;;;21.08;;
71087;SDS011;58747;50.674;4.616;2022-12-15T09:13:58;40.03;;;20.98;;
71087;SDS011;58747;50.674;4.616;2022-12-15T09:16:24;40.87;;;21.17;;
71087;SDS011;58747;50.674;4.616;2022-12-15T09:18:51;40.30;;;21.83;;
71087;SDS011;58747;50.674;4.616;2022-12-15T09:21:19;42.45;;;22.00;;
71087;SDS011;58747;50.674;4.616;2022-12-15T09:23:50;45.10;;;22.23;;
71087;SDS011;58747;50.674;4.616;2022-12-15T09:26:17;46.08;;;22.10;;
71087;SDS011;58747;50.674;4.616;2022-12-15T09:28:43;41.75;;;21.77;;
71087;SDS011;58747;50.674;4.616;2022-12-15T09:31:13;45.58;;;21.42;;
71087;SDS011;58747;50.674;4.616;2022-12-15T09:33:41;48.15;;;21.92;;
71087;SDS011;58747;50.674;4.616;2022-12-15T09:36:08;43.58;;;22.80;;
71087;SDS011;58747;50.674;4.616;2022-12-15T09:38:34;46.33;;;24.27;;
71087;SDS011;58747;50.674;4.616;2022-12-15T09:43:41;45.08;;;23.55;;
71087;SDS011;58747;50.674;4.616;2022-12-15T09:52:09;43.92;;;21.75;;
71087;SDS011;58747;50.674;4.616;2022-12-15T09:54:44;47.67;;;22.15;;
71087;SDS011;58747;50.674;4.616;2022-12-15T10:00:13;40.20;;;20.17;;
71087;SDS011;58747;50.674;4.616;2022-12-15T10:02:50;43.63;;;22.23;;
71087;SDS011;58747;50.674;4.616;2022-12-15T10:08:27;45.92;;;21.92;;
71087;SDS011;58747;50.674;4.616;2022-12-15T10:10:56;48.05;;;23.58;;
71087;SDS011;58747;50.674;4.616;2022-12-15T10:15:58;45.45;;;22.63;;
71087;SDS011;58747;50.674;4.616;2022-12-15T10:21:17;43.72;;;21.30;;
71087;SDS011;58747;50.674;4.616;2022-12-15T10:23:43;45.03;;;22.53;;
71087;SDS011;58747;50.674;4.616;2022-12-15T10:26:19;46.25;;;22.00;;
71087;SDS011;58747;50.674;4.616;2022-12-15T10:31:22;45.38;;;23.83;;
71087;SDS011;58747;50.674;4.616;2022-12-15T10:34:00;40.63;;;23.60;;
71087;SDS011;58747;50.674;4.616;2022-12-15T10:36:34;52.33;;;25.15;;
71087;SDS011;58747;50.674;4.616;2022-12-15T10:38:59;43.33;;;24.50;;
71087;SDS011;58747;50.674;4.616;2022-12-15T10:41:25;39.30;;;23.60;;
71087;SDS011;58747;50.674;4.616;2022-12-15T10:43:55;42.05;;;23.55;;
71087;SDS011;58747;50.674;4.616;2022-12-15T10:46:22;44.83;;;24.77;;
71087;SDS011;58747;50.674;4.616;2022-12-15T10:51:50;51.22;;;24.88;;
71087;SDS011;58747;50.674;4.616;2022-12-15T10:54:19;50.87;;;24.63;;
71087;SDS011;58747;50.674;4.616;2022-12-15T10:59:31;49.58;;;26.20;;
71087;SDS011;58747;50.674;4.616;2022-12-15T11:04:43;54.00;;;27.20;;
71087;SDS011;58747;50.674;4.616;2022-12-15T11:07:22;47.17;;;26.77;;
71087;SDS011;58747;50.674;4.616;2022-12-15T11:09:53;49.97;;;27.00;;
71087;SDS011;58747;50.674;4.616;2022-12-15T11:12:23;56.88;;;29.35;;
71087;SDS011;58747;50.674;4.616;2022-12-15T11:17:47;46.88;;;25.70;;
71087;SDS011;58747;50.674;4.616;2022-12-15T11:20:19;45.37;;;24.43;;
71087;SDS011;58747;50.674;4.616;2022-12-15T11:22:55;41.90;;;24.80;;
71087;SDS011;58747;50.674;4.616;2022-12-15T11:25:40;42.55;;;24.00;;
71087;SDS011;58747;50.674;4.616;2022-12-15T11:28:15;43.10;;;23.00;;
71087;SDS011;58747;50.674;4.616;2022-12-15T11:30:45;47.55;;;26.58;;
71087;SDS011;58747;50.674;4.616;2022-12-15T11:33:14;43.67;;;24.73;;
71087;SDS011;58747;50.674;4.616;2022-12-15T11:35:48;41.17;;;25.00;;
71087;SDS011;58747;50.674;4.616;2022-12-15T11:38:31;38.30;;;23.83;;
71087;SDS011;58747;50.674;4.616;2022-12-15T11:41:16;35.38;;;22.75;;
71087;SDS011;58747;50.674;4.616;2022-12-15T11:46:38;29.20;;;17.27;;
71087;SDS011;58747;50.674;4.616;2022-12-15T11:49:27;29.33;;;18.35;;
71087;SDS011;58747;50.674;4.616;2022-12-15T11:52:16;23.17;;;14.13;;
71087;SDS011;58747;50.674;4.616;2022-12-15T11:55:11;27.23;;;14.93;;
71087;SDS011;58747;50.674;4.616;2022-12-15T11:57:55;26.33;;;14.77;;
71087;SDS011;58747;50.674;4.616;2022-12-15T12:00:34;24.27;;;12.75;;
71087;SDS011;58747;50.674;4.616;2022-12-15T12:03:53;20.40;;;11.55;;
71087;SDS011;58747;50.674;4.616;2022-12-15T12:06:33;20.90;;;10.97;;
71087;SDS011;58747;50.674;4.616;2022-12-15T12:12:14;15.98;;;9.65;;
71087;SDS011;58747;50.674;4.616;2022-12-15T12:15:14;16.08;;;8.38;;
71087;SDS011;58747;50.674;4.616;2022-12-15T12:23:26;11.68;;;7.78;;
71087;SDS011;58747;50.674;4.616;2022-12-15T12:26:16;12.73;;;7.10;;
71087;SDS011;58747;50.674;4.616;2022-12-15T12:29:04;11.98;;;7.53;;
71087;SDS011;58747;50.674;4.616;2022-12-15T12:34:28;12.25;;;8.18;;
71087;SDS011;58747;50.674;4.616;2022-12-15T12:37:12;15.02;;;9.05;;
71087;SDS011;58747;50.674;4.616;2022-12-15T12:40:10;19.27;;;10.38;;
71087;SDS011;58747;50.674;4.616;2022-12-15T12:42:58;17.45;;;9.95;;
71087;SDS011;58747;50.674;4.616;2022-12-15T12:48:12;23.88;;;13.43;;
71087;SDS011;58747;50.674;4.616;2022-12-15T12:51:10;25.35;;;11.27;;
71087;SDS011;58747;50.674;4.616;2022-12-15T12:53:45;21.13;;;12.27;;
71087;SDS011;58747;50.674;4.616;2022-12-15T12:58:55;20.60;;;10.98;;
71087;SDS011;58747;50.674;4.616;2022-12-15T13:01:39;17.63;;;11.75;;
71087;SDS011;58747;50.674;4.616;2022-12-15T13:04:11;17.73;;;9.98;;
71087;SDS011;58747;50.674;4.616;2022-12-15T13:12:18;19.10;;;9.65;;
71087;SDS011;58747;50.674;4.616;2022-12-15T13:15:12;15.65;;;9.13;;
71087;SDS011;58747;50.674;4.616;2022-12-15T13:17:50;18.48;;;8.27;;
71087;SDS011;58747;50.674;4.616;2022-12-15T13:22:44;13.98;;;8.00;;
71087;SDS011;58747;50.674;4.616;2022-12-15T13:25:25;13.47;;;7.77;;
71087;SDS011;58747;50.674;4.616;2022-12-15T13:28:00;17.08;;;8.70;;
71087;SDS011;58747;50.674;4.616;2022-12-15T13:31:10;11.77;;;7.00;;
71087;SDS011;58747;50.674;4.616;2022-12-15T13:39:50;17.87;;;9.33;;
71087;SDS011;58747;50.674;4.616;2022-12-15T13:47:19;17.48;;;10.05;;
71087;SDS011;58747;50.674;4.616;2022-12-15T13:50:00;20.70;;;10.15;;
71087;SDS011;58747;50.674;4.616;2022-12-15T13:52:37;16.80;;;9.82;;
71087;SDS011;58747;50.674;4.616;2022-12-15T13:55:51;17.40;;;10.30;;
71087;SDS011;58747;50.674;4.616;2022-12-15T13:58:04;18.77;;;9.70;;
71087;SDS011;58747;50.674;4.616;2022-12-15T14:00:37;12.35;;;8.40;;
71087;SDS011;58747;50.674;4.616;2022-12-15T14:03:09;15.13;;;9.07;;
71087;SDS011;58747;50.674;4.616;2022-12-15T14:05:35;17.42;;;10.18;;
71087;SDS011;58747;50.674;4.616;2022-12-15T14:08:04;16.70;;;10.73;;
71087;SDS011;58747;50.674;4.616;2022-12-15T14:10:45;20.33;;;10.00;;
71087;SDS011;58747;50.674;4.616;2022-12-15T14:15:44;16.97;;;10.00;;
71087;SDS011;58747;50.674;4.616;2022-12-15T14:18:24;18.38;;;9.77;;
71087;SDS011;58747;50.674;4.616;2022-12-15T14:20:51;14.68;;;8.88;;
71087;SDS011;58747;50.674;4.616;2022-12-15T14:23:18;19.77;;;9.80;;
71087;SDS011;58747;50.674;4.616;2022-12-15T14:26:02;18.40;;;10.40;;
71087;SDS011;58747;50.674;4.616;2022-12-15T14:28:30;20.00;;;9.75;;
71087;SDS011;58747;50.674;4.616;2022-12-15T14:31:20;16.70;;;10.13;;
71087;SDS011;58747;50.674;4.616;2022-12-15T14:33:59;17.80;;;9.80;;
71087;SDS011;58747;50.674;4.616;2022-12-15T14:36:35;18.42;;;10.35;;
71087;SDS011;58747;50.674;4.616;2022-12-15T14:39:02;18.50;;;10.70;;
71087;SDS011;58747;50.674;4.616;2022-12-15T14:41:32;21.02;;;10.90;;
71087;SDS011;58747;50.674;4.616;2022-12-15T14:44:04;18.02;;;10.13;;
71087;SDS011;58747;50.674;4.616;2022-12-15T14:46:32;21.48;;;10.95;;
71087;SDS011;58747;50.674;4.616;2022-12-15T14:49:05;23.30;;;10.43;;
71087;SDS011;58747;50.674;4.616;2022-12-15T14:51:39;22.65;;;12.05;;
71087;SDS011;58747;50.674;4.616;2022-12-15T14:57:28;19.55;;;11.95;;
71087;SDS011;58747;50.674;4.616;2022-12-15T14:59:47;18.73;;;11.50;;
71087;SDS011;58747;50.674;4.616;2022-12-15T15:02:16;21.52;;;11.75;;
71087;SDS011;58747;50.674;4.616;2022-12-15T15:07:20;20.48;;;13.52;;
71087;SDS011;58747;50.674;4.616;2022-12-15T15:09:47;21.17;;;12.70;;
71087;SDS011;58747;50.674;4.616;2022-12-15T15:12:17;25.70;;;14.33;;
71087;SDS011;58747;50.674;4.616;2022-12-15T15:14:45;25.63;;;13.20;;
71087;SDS011;58747;50.674;4.616;2022-12-15T15:22:35;21.45;;;13.45;;
71087;SDS011;58747;50.674;4.616;2022-12-15T15:27:51;16.40;;;9.52;;
71087;SDS011;58747;50.674;4.616;2022-12-15T15:30:20;25.85;;;15.05;;
71087;SDS011;58747;50.674;4.616;2022-12-15T15:32:57;26.10;;;14.77;;
71087;SDS011;58747;50.674;4.616;2022-12-15T15:35:24;25.17;;;14.68;;
71087;SDS011;58747;50.674;4.616;2022-12-15T15:37:55;22.65;;;13.70;;
71087;SDS011;58747;50.674;4.616;2022-12-15T15:40:26;29.30;;;13.82;;
71087;SDS011;58747;50.674;4.616;2022-12-15T15:42:52;24.90;;;15.60;;
71087;SDS011;58747;50.674;4.616;2022-12-15T15:45:17;25.37;;;14.13;;
71087;SDS011;58747;50.674;4.616;2022-12-15T15:47:47;25.15;;;14.82;;
71087;SDS011;58747;50.674;4.616;2022-12-15T15:50:16;26.95;;;16.00;;
71087;SDS011;58747;50.674;4.616;2022-12-15T15:52:47;29.67;;;15.20;;
71087;SDS011;58747;50.674;4.616;2022-12-15T15:55:14;29.88;;;16.50;;
71087;SDS011;58747;50.674;4.616;2022-12-15T15:57:43;28.83;;;14.80;;
71087;SDS011;58747;50.674;4.616;2022-12-15T16:00:14;26.95;;;13.98;;
71087;SDS011;58747;50.674;4.616;2022-12-15T16:02:41;27.10;;;16.00;;
71087;SDS011;58747;50.674;4.616;2022-12-15T16:05:07;29.57;;;15.63;;
71087;SDS011;58747;50.674;4.616;2022-12-15T16:07:32;27.13;;;15.07;;
71087;SDS011;58747;50.674;4.616;2022-12-15T16:09:58;25.75;;;14.88;;
71087;SDS011;58747;50.674;4.616;2022-12-15T16:16:03;24.83;;;13.83;;
71087;SDS011;58747;50.674;4.616;2022-12-15T16:19:02;26.17;;;14.07;;
71087;SDS011;58747;50.674;4.616;2022-12-15T16:24:20;29.17;;;15.68;;
71087;SDS011;58747;50.674;4.616;2022-12-15T16:26:59;30.42;;;16.75;;
71087;SDS011;58747;50.674;4.616;2022-12-15T16:33:01;21.08;;;12.10;;
71087;SDS011;58747;50.674;4.616;2022-12-15T16:35:26;30.23;;;17.30;;
71087;SDS011;58747;50.674;4.616;2022-12-15T16:37:51;40.17;;;20.88;;
71087;SDS011;58747;50.674;4.616;2022-12-15T16:45:23;37.80;;;20.05;;
71087;SDS011;58747;50.674;4.616;2022-12-15T16:47:50;38.13;;;19.58;;
71087;SDS011;58747;50.674;4.616;2022-12-15T16:50:17;41.53;;;21.05;;
71087;SDS011;58747;50.674;4.616;2022-12-15T16:52:51;37.85;;;19.60;;
71087;SDS011;58747;50.674;4.616;2022-12-15T16:55:19;48.00;;;22.33;;
71087;SDS011;58747;50.674;4.616;2022-12-15T16:57:47;42.60;;;21.83;;
71087;SDS011;58747;50.674;4.616;2022-12-15T17:00:17;41.47;;;22.90;;
71087;SDS011;58747;50.674;4.616;2022-12-15T17:02:48;50.30;;;23.25;;
71087;SDS011;58747;50.674;4.616;2022-12-15T17:05:14;44.80;;;22.97;;
71087;SDS011;58747;50.674;4.616;2022-12-15T17:07:40;45.90;;;24.73;;
71087;SDS011;58747;50.674;4.616;2022-12-15T17:10:09;52.65;;;26.40;;
71087;SDS011;58747;50.674;4.616;2022-12-15T17:12:42;49.40;;;24.85;;
71087;SDS011;58747;50.674;4.616;2022-12-15T17:15:15;54.05;;;25.58;;
71087;SDS011;58747;50.674;4.616;2022-12-15T17:17:48;55.23;;;25.60;;
71087;SDS011;58747;50.674;4.616;2022-12-15T17:20:15;52.03;;;25.83;;